createdAt,value
2019-02-07T00:01:26.426Z,143.1
2019-02-07T00:11:28.128Z,122.1
2019-02-07T00:21:28.158Z,135.4
2019-02-07T00:31:27.052Z,140.1
2019-02-07T00:41:28.000Z,121.6
2019-02-07T00:51:29.464Z,117.4
2019-02-07T01:01:28.310Z,125.8
2019-02-07T01:11:27.065Z,115.4
2019-02-07T01:21:27.096Z,116.2
2019-02-07T01:31:26.850Z,120.4
2019-02-07T01:41:26.852Z,134.3
2019-02-07T01:51:27.067Z,131.4
2019-02-07T02:01:27.752Z,116.9
2019-02-07T02:11:26.315Z,117.8
2019-02-07T02:21:27.540Z,126.5
2019-02-07T02:31:28.051Z,116.0
2019-02-07T02:41:26.868Z,123.6
2019-02-07T02:51:26.779Z,110.3
2019-02-07T03:01:26.439Z,125.0
2019-02-07T03:11:28.952Z,118.2
2019-02-07T03:21:26.922Z,114.2
2019-02-07T03:31:26.999Z,118.6
2019-02-07T03:41:27.238Z,114.0
2019-02-07T03:51:27.750Z,117.9
2019-02-07T04:01:26.511Z,119.0
2019-02-07T04:11:27.647Z,118.6
2019-02-07T04:21:27.127Z,122.2
2019-02-07T04:31:26.839Z,127.5
2019-02-07T04:41:27.025Z,124.5
2019-02-07T04:51:27.121Z,115.7
2019-02-07T05:01:28.217Z,112.5
2019-02-07T05:11:27.209Z,135.4
2019-02-07T05:21:27.025Z,117.3
2019-02-07T05:31:29.078Z,136.9
2019-02-07T05:41:32.216Z,153.8
2019-02-07T05:51:28.560Z,146.5
2019-02-07T06:01:28.245Z,126.8
2019-02-07T06:11:27.424Z,118.2
2019-02-07T06:21:28.976Z,137.4
2019-02-07T06:31:27.548Z,114.0
2019-02-07T06:41:27.517Z,103.2
2019-02-07T06:51:27.230Z,112.6
2019-02-07T07:01:27.590Z,93.5
2019-02-07T07:11:28.241Z,118.6
2019-02-07T07:21:27.350Z,108.0
2019-02-07T07:31:27.295Z,91.8
2019-02-07T07:41:27.605Z,97.9
2019-02-07T07:51:32.606Z,96.5
2019-02-07T08:01:26.937Z,134.3
2019-02-07T08:11:28.057Z,124.9
2019-02-07T08:21:26.957Z,100.1
2019-02-07T08:31:27.110Z,113.4
2019-02-07T08:41:26.843Z,101.1
2019-02-07T08:51:26.467Z,107.4
2019-02-07T09:01:30.964Z,90.4
2019-02-07T09:11:26.834Z,78.2
2019-02-07T09:21:26.939Z,93.4
2019-02-07T09:31:27.243Z,87.4
2019-02-07T09:41:29.260Z,60.4
2019-02-07T09:51:27.070Z,63.2
2019-02-07T10:01:26.965Z,53.0
2019-02-07T10:11:27.712Z,52.5
2019-02-07T10:21:26.473Z,42.4
2019-02-07T10:31:27.755Z,41.4
2019-02-07T10:41:28.097Z,39.6
2019-02-07T10:51:26.871Z,47.6
2019-02-07T11:01:27.723Z,43.7
2019-02-07T11:11:26.804Z,41.6
2019-02-07T11:21:27.317Z,39.6
2019-02-07T11:31:27.337Z,56.3
2019-02-07T11:41:27.309Z,54.5
2019-02-07T11:51:28.440Z,54.2
2019-02-07T12:01:27.899Z,54.0
2019-02-07T12:11:27.068Z,57.6
2019-02-07T12:21:27.225Z,55.7
2019-02-07T12:31:26.834Z,59.3
2019-02-07T12:41:26.623Z,62.0
2019-02-07T12:51:28.757Z,55.5
2019-02-07T13:01:26.502Z,46.1
2019-02-07T13:11:27.536Z,38.1
2019-02-07T13:21:26.627Z,49.6
2019-02-07T13:31:26.909Z,49.0
2019-02-07T13:41:27.805Z,49.8
2019-02-07T13:51:27.602Z,41.5
2019-02-07T14:01:28.316Z,51.9
2019-02-07T14:11:27.321Z,40.8
2019-02-07T14:21:29.018Z,43.5
2019-02-07T14:31:27.564Z,42.5
2019-02-07T14:41:28.395Z,46.0
2019-02-07T14:51:27.523Z,43.9
2019-02-07T15:01:27.702Z,38.2
2019-02-07T15:11:26.888Z,41.4
2019-02-07T15:21:26.860Z,46.3
2019-02-07T15:31:26.966Z,47.0
2019-02-07T15:41:26.792Z,52.1
2019-02-07T15:51:27.145Z,56.3
2019-02-07T16:01:27.443Z,47.6
2019-02-07T16:11:27.905Z,46.3
2019-02-07T16:21:28.574Z,46.4
2019-02-07T16:31:28.643Z,46.4
2019-02-07T16:41:26.872Z,48.4
2019-02-07T16:51:26.796Z,51.6
2019-02-07T17:01:27.330Z,55.9
2019-02-07T17:11:27.150Z,61.0
2019-02-07T17:21:27.337Z,64.4
2019-02-07T17:31:27.321Z,63.5
2019-02-07T17:41:27.209Z,59.8
2019-02-07T17:51:27.104Z,57.3
2019-02-07T18:01:27.281Z,70.8
2019-02-07T18:11:27.428Z,81.4
2019-02-07T18:21:35.100Z,164.4
2019-02-07T18:31:29.147Z,138.4
2019-02-07T18:41:29.253Z,137.4
2019-02-07T18:51:27.103Z,141.1
2019-02-07T19:01:27.202Z,127.7
2019-02-07T19:11:27.839Z,126.6
2019-02-07T19:21:26.950Z,156.1
2019-02-07T19:31:26.655Z,136.6
2019-02-07T19:41:26.627Z,157.1
2019-02-07T19:51:29.327Z,243.5
2019-02-07T20:01:27.908Z,176.0
2019-02-07T20:11:27.779Z,154.0
2019-02-07T20:21:27.245Z,143.5
2019-02-07T20:31:29.805Z,139.5
2019-02-07T20:41:26.853Z,143.9
2019-02-07T20:51:27.376Z,142.9
2019-02-07T21:01:27.374Z,148.7
2019-02-07T21:11:28.405Z,159.6
2019-02-07T21:21:27.516Z,157.4
2019-02-07T21:31:30.144Z,156.1
2019-02-07T21:41:26.468Z,163.5
2019-02-07T21:51:28.185Z,155.6
2019-02-07T22:01:27.034Z,150.1
2019-02-07T22:11:28.157Z,130.2
2019-02-07T22:21:27.556Z,135.8
2019-02-07T22:31:28.516Z,135.7
2019-02-07T22:41:26.575Z,132.9
2019-02-07T22:51:27.486Z,129.4
2019-02-07T23:01:27.749Z,125.9
2019-02-07T23:11:27.989Z,130.5
2019-02-07T23:21:28.444Z,128.4
2019-02-07T23:31:28.149Z,127.8
2019-02-07T23:41:26.830Z,130.1
2019-02-07T23:51:27.236Z,136.6
